createdAt,value
2022-08-19T00:01:30.357Z,21.71
2022-08-19T00:04:03.925Z,21.77
2022-08-19T00:06:31.312Z,21.74
2022-08-19T00:08:58.923Z,21.74
2022-08-19T00:11:26.457Z,21.57
2022-08-19T00:13:53.879Z,21.69
2022-08-19T00:16:26.329Z,21.69
2022-08-19T00:18:54.907Z,21.69
2022-08-19T00:21:22.038Z,21.61
2022-08-19T00:23:48.788Z,21.63
2022-08-19T00:26:15.801Z,21.60
2022-08-19T00:28:42.490Z,21.68
2022-08-19T00:31:10.200Z,21.59
2022-08-19T00:33:37.273Z,21.58
2022-08-19T00:36:07.927Z,21.68
2022-08-19T00:38:39.379Z,21.72
2022-08-19T00:41:07.066Z,21.69
2022-08-19T00:43:34.474Z,21.74
2022-08-19T00:46:02.412Z,21.72
2022-08-19T00:48:28.991Z,21.80
2022-08-19T00:50:56.518Z,21.80
2022-08-19T00:53:27.468Z,21.78
2022-08-19T00:55:57.416Z,21.77
2022-08-19T00:58:31.090Z,21.79
2022-08-19T01:00:57.666Z,21.72
2022-08-19T01:03:24.639Z,21.73
2022-08-19T01:05:54.405Z,21.66
2022-08-19T01:08:21.445Z,21.59
2022-08-19T01:10:57.149Z,21.61
2022-08-19T01:13:27.699Z,21.56
2022-08-19T01:16:07.796Z,21.52
2022-08-19T01:18:40.212Z,21.44
2022-08-19T01:21:17.908Z,21.56
2022-08-19T01:23:45.964Z,21.53
2022-08-19T01:26:19.135Z,21.38
2022-08-19T01:28:48.270Z,21.33
2022-08-19T01:31:26.525Z,21.22
2022-08-19T01:33:56.736Z,21.07
2022-08-19T01:36:31.107Z,20.94
2022-08-19T01:38:59.153Z,20.95
2022-08-19T01:41:26.087Z,20.99
2022-08-19T01:44:13.806Z,20.73
2022-08-19T01:46:40.804Z,20.67
2022-08-19T01:49:09.103Z,20.66
2022-08-19T01:51:38.474Z,20.68
2022-08-19T01:54:07.950Z,20.60
2022-08-19T01:56:36.518Z,20.71
2022-08-19T01:59:09.306Z,20.61
2022-08-19T02:01:36.036Z,20.53
2022-08-19T02:04:03.660Z,20.42
2022-08-19T02:06:30.659Z,20.48
2022-08-19T02:08:57.612Z,20.44
2022-08-19T02:11:36.377Z,20.20
2022-08-19T02:14:06.714Z,20.19
2022-08-19T02:16:33.758Z,20.17
2022-08-19T02:19:01.641Z,20.09
2022-08-19T02:21:29.481Z,20.08
2022-08-19T02:23:56.929Z,20.00
2022-08-19T02:26:23.517Z,19.96
2022-08-19T02:28:50.197Z,19.92
2022-08-19T02:31:21.172Z,19.95
2022-08-19T02:33:48.218Z,19.85
2022-08-19T02:36:16.506Z,19.90
2022-08-19T02:38:54.941Z,19.96
2022-08-19T02:41:33.447Z,19.92
2022-08-19T02:44:30.017Z,19.91
2022-08-19T02:46:51.778Z,19.87
2022-08-19T02:49:19.381Z,19.82
2022-08-19T02:51:47.207Z,19.81
2022-08-19T02:54:15.103Z,19.73
2022-08-19T02:56:42.763Z,19.66
2022-08-19T02:59:11.959Z,19.62
2022-08-19T03:01:40.737Z,19.56
2022-08-19T03:04:09.041Z,19.60
2022-08-19T03:06:39.310Z,19.59
2022-08-19T03:09:05.985Z,19.71
2022-08-19T03:11:34.100Z,19.62
2022-08-19T03:14:02.547Z,19.61
2022-08-19T03:16:33.534Z,19.54
2022-08-19T03:19:01.480Z,19.49
2022-08-19T03:21:30.774Z,19.32
2022-08-19T03:23:59.734Z,19.33
2022-08-19T03:26:26.569Z,19.33
2022-08-19T03:28:57.849Z,19.31
2022-08-19T03:31:44.531Z,19.27
2022-08-19T03:34:35.142Z,19.34
2022-08-19T03:37:06.881Z,19.35
2022-08-19T03:39:33.766Z,19.34
2022-08-19T03:42:32.136Z,19.29
2022-08-19T03:44:49.971Z,19.24
2022-08-19T03:47:16.794Z,19.24
2022-08-19T03:49:43.498Z,19.34
2022-08-19T03:52:10.151Z,19.40
2022-08-19T03:54:38.978Z,19.19
2022-08-19T03:57:06.021Z,19.31
2022-08-19T03:59:36.309Z,19.17
2022-08-19T04:02:09.376Z,19.33
2022-08-19T04:04:37.529Z,19.41
2022-08-19T04:07:04.343Z,19.24
2022-08-19T04:09:30.895Z,19.12
2022-08-19T04:11:58.869Z,18.96
2022-08-19T04:14:33.360Z,18.93
2022-08-19T04:17:01.175Z,18.75
2022-08-19T04:19:30.237Z,18.74
2022-08-19T04:21:56.771Z,18.73
2022-08-19T04:24:23.973Z,18.59
2022-08-19T04:26:50.981Z,18.47
2022-08-19T04:29:22.680Z,18.54
2022-08-19T04:31:50.237Z,18.61
2022-08-19T04:34:19.349Z,18.57
2022-08-19T04:36:46.333Z,18.45
2022-08-19T04:39:17.013Z,18.40
2022-08-19T04:42:03.044Z,18.35
2022-08-19T04:44:33.139Z,18.35
2022-08-19T04:47:00.494Z,18.32
2022-08-19T04:49:28.830Z,18.32
2022-08-19T04:51:55.955Z,18.24
2022-08-19T04:54:38.549Z,18.31
2022-08-19T04:57:08.504Z,18.24
2022-08-19T04:59:36.401Z,18.29
2022-08-19T05:02:03.837Z,18.36
2022-08-19T05:04:31.960Z,18.35
2022-08-19T05:07:00.040Z,18.18
2022-08-19T05:09:28.723Z,18.18
2022-08-19T05:12:16.171Z,18.20
2022-08-19T05:14:42.842Z,17.98
2022-08-19T05:17:26.732Z,17.95
2022-08-19T05:20:12.459Z,17.98
2022-08-19T05:22:39.070Z,17.97
2022-08-19T05:25:13.016Z,17.87
2022-08-19T05:27:40.235Z,17.78
2022-08-19T05:30:07.694Z,17.80
2022-08-19T05:32:34.209Z,17.87
2022-08-19T05:35:00.834Z,17.84
2022-08-19T05:37:28.458Z,17.78
2022-08-19T05:39:55.881Z,17.69
2022-08-19T05:42:24.098Z,17.74
2022-08-19T05:44:52.074Z,17.69
2022-08-19T05:47:20.805Z,17.72
2022-08-19T05:49:48.077Z,17.66
2022-08-19T05:52:19.455Z,17.69
2022-08-19T05:54:52.132Z,17.78
2022-08-19T05:57:21.544Z,17.79
2022-08-19T05:59:49.410Z,17.80
2022-08-19T06:02:20.072Z,17.77
2022-08-19T06:04:47.144Z,17.77
2022-08-19T06:07:13.786Z,17.82
2022-08-19T06:09:41.208Z,17.75
2022-08-19T06:12:10.516Z,17.78
2022-08-19T06:14:40.353Z,17.77
2022-08-19T06:17:09.256Z,17.83
2022-08-19T06:19:40.752Z,17.94
2022-08-19T06:22:08.356Z,17.95
2022-08-19T06:24:36.602Z,17.95
2022-08-19T06:27:04.206Z,18.12
2022-08-19T06:29:31.211Z,18.19
2022-08-19T06:31:59.990Z,18.12
2022-08-19T06:34:29.508Z,18.14
2022-08-19T06:36:57.006Z,18.13
2022-08-19T06:39:26.207Z,18.19
2022-08-19T06:41:59.018Z,18.25
2022-08-19T06:44:28.824Z,18.26
2022-08-19T06:46:57.050Z,18.27
2022-08-19T06:49:24.621Z,18.30
2022-08-19T06:51:51.766Z,18.28
2022-08-19T06:54:20.390Z,18.27
2022-08-19T06:56:47.759Z,18.33
2022-08-19T06:59:18.759Z,18.24
2022-08-19T07:01:49.108Z,18.34
2022-08-19T07:04:19.367Z,18.45
2022-08-19T07:06:54.863Z,18.50
2022-08-19T07:09:22.075Z,18.50
2022-08-19T07:11:50.762Z,18.53
2022-08-19T07:14:20.353Z,18.61
2022-08-19T07:16:50.070Z,18.68
2022-08-19T07:19:18.872Z,18.64
2022-08-19T07:21:47.197Z,18.81
2022-08-19T07:24:13.858Z,18.85
2022-08-19T07:26:42.798Z,18.73
2022-08-19T07:29:10.854Z,18.84
2022-08-19T07:31:38.167Z,18.76
2022-08-19T07:34:08.290Z,18.85
2022-08-19T07:36:37.751Z,18.95
2022-08-19T07:39:12.496Z,19.02
2022-08-19T07:41:39.465Z,19.00
2022-08-19T07:44:08.361Z,19.02
2022-08-19T07:46:38.279Z,19.07
2022-08-19T07:49:06.293Z,19.11
2022-08-19T07:51:36.872Z,19.02
2022-08-19T07:54:04.798Z,19.00
2022-08-19T07:56:31.386Z,19.04
2022-08-19T07:58:58.114Z,19.21
2022-08-19T08:01:27.511Z,19.59
2022-08-19T08:04:14.226Z,19.86
2022-08-19T08:07:00.154Z,19.97
2022-08-19T08:09:31.943Z,20.02
2022-08-19T08:12:32.912Z,20.16
2022-08-19T08:14:57.764Z,20.25
2022-08-19T08:17:40.689Z,20.14
2022-08-19T08:20:15.309Z,20.16
2022-08-19T08:23:07.595Z,20.18
2022-08-19T08:25:36.378Z,20.19
2022-08-19T08:28:04.091Z,20.21
2022-08-19T08:30:33.458Z,20.14
2022-08-19T08:33:00.888Z,19.97
2022-08-19T08:35:29.515Z,19.94
2022-08-19T08:37:57.395Z,19.68
2022-08-19T08:40:45.250Z,19.87
2022-08-19T08:43:32.472Z,19.97
2022-08-19T08:46:12.230Z,20.10
2022-08-19T08:49:00.821Z,20.16
2022-08-19T08:54:18.888Z,20.43
2022-08-19T08:56:46.878Z,20.38
2022-08-19T08:59:25.430Z,20.58
2022-08-19T09:01:52.000Z,20.79
2022-08-19T09:04:19.196Z,20.87
2022-08-19T09:07:34.461Z,21.16
2022-08-19T09:10:10.039Z,21.48
2022-08-19T09:12:47.424Z,21.74
2022-08-19T09:15:17.187Z,21.75
2022-08-19T09:17:43.701Z,21.71
2022-08-19T09:20:21.567Z,21.79
2022-08-19T09:22:50.151Z,22.23
2022-08-19T09:25:24.657Z,22.39
2022-08-19T09:27:55.029Z,22.60
2022-08-19T09:30:32.297Z,22.67
2022-08-19T09:32:59.843Z,23.08
2022-08-19T09:35:29.714Z,23.03
2022-08-19T09:37:59.473Z,23.49
2022-08-19T09:40:30.381Z,23.75
2022-08-19T09:42:58.714Z,24.06
2022-08-19T09:45:25.314Z,24.45
2022-08-19T09:47:54.122Z,24.43
2022-08-19T09:50:22.606Z,24.31
2022-08-19T09:52:55.116Z,24.47
2022-08-19T09:55:31.648Z,24.33
2022-08-19T09:58:01.359Z,24.21
2022-08-19T10:00:27.977Z,23.96
2022-08-19T10:02:54.481Z,24.06
2022-08-19T10:05:42.454Z,23.75
2022-08-19T10:08:13.410Z,23.59
2022-08-19T10:10:44.168Z,23.15
2022-08-19T10:13:15.905Z,23.36
2022-08-19T10:15:47.321Z,24.51
2022-08-19T10:18:15.754Z,24.39
2022-08-19T10:20:42.823Z,24.16
2022-08-19T10:23:10.317Z,24.17
2022-08-19T10:25:38.350Z,24.42
2022-08-19T10:28:10.637Z,24.49
2022-08-19T10:30:38.217Z,24.49
2022-08-19T10:33:10.846Z,24.16
2022-08-19T10:35:56.452Z,23.59
2022-08-19T10:38:31.701Z,23.63
2022-08-19T10:41:07.682Z,24.54
2022-08-19T10:43:37.031Z,25.27
2022-08-19T10:46:04.843Z,25.59
2022-08-19T10:48:36.449Z,26.32
2022-08-19T10:51:23.189Z,26.79
2022-08-19T10:53:51.288Z,26.94
2022-08-19T10:56:36.860Z,26.57
2022-08-19T10:59:04.341Z,26.31
2022-08-19T11:01:34.214Z,26.98
2022-08-19T11:04:02.499Z,26.63
2022-08-19T11:06:29.051Z,26.64
2022-08-19T11:08:55.644Z,26.71
2022-08-19T11:11:23.270Z,26.23
2022-08-19T11:13:50.937Z,26.05
2022-08-19T11:16:27.034Z,25.83
2022-08-19T11:18:59.415Z,25.71
2022-08-19T11:21:34.470Z,25.44
2022-08-19T11:24:04.230Z,25.19
2022-08-19T11:26:31.695Z,25.10
2022-08-19T11:29:00.217Z,25.77
2022-08-19T11:31:34.325Z,26.77
2022-08-19T11:34:04.141Z,25.88
2022-08-19T11:36:32.097Z,25.87
2022-08-19T11:38:58.654Z,25.69
2022-08-19T11:41:25.877Z,25.52
2022-08-19T11:43:56.062Z,25.31
2022-08-19T11:46:25.073Z,26.08
2022-08-19T11:48:52.050Z,26.32
2022-08-19T11:51:22.606Z,26.14
2022-08-19T11:53:51.355Z,26.89
2022-08-19T11:56:19.627Z,28.03
2022-08-19T11:58:46.901Z,28.29
2022-08-19T12:01:16.954Z,27.80
2022-08-19T12:03:46.045Z,28.15
2022-08-19T12:06:15.451Z,28.54
2022-08-19T12:08:43.971Z,28.64
2022-08-19T12:11:11.472Z,28.67
2022-08-19T12:13:39.776Z,29.76
2022-08-19T12:16:15.242Z,28.35
2022-08-19T12:18:44.763Z,27.25
2022-08-19T12:21:12.061Z,27.46
2022-08-19T12:23:38.960Z,28.04
2022-08-19T12:26:05.673Z,28.83
2022-08-19T12:28:32.246Z,29.77
2022-08-19T12:30:58.906Z,30.36
2022-08-19T12:33:28.694Z,30.40
2022-08-19T12:35:55.972Z,28.81
2022-08-19T12:38:25.593Z,28.88
2022-08-19T12:40:55.964Z,28.56
2022-08-19T12:43:25.533Z,28.21
2022-08-19T12:45:52.112Z,28.44
2022-08-19T12:48:34.445Z,28.89
2022-08-19T12:51:07.056Z,28.27
2022-08-19T12:53:33.583Z,27.81
2022-08-19T12:56:03.978Z,27.35
2022-08-19T12:58:35.582Z,29.29
2022-08-19T13:01:33.657Z,33.24
2022-08-19T13:04:00.759Z,32.20
2022-08-19T13:06:27.660Z,32.20
2022-08-19T13:08:59.514Z,31.42
2022-08-19T13:11:26.464Z,30.12
2022-08-19T13:13:54.624Z,30.63
2022-08-19T13:16:21.343Z,29.38
2022-08-19T13:18:48.637Z,28.61
2022-08-19T13:21:15.694Z,28.21
2022-08-19T13:23:42.382Z,27.94
2022-08-19T13:26:10.515Z,28.19
2022-08-19T13:28:55.590Z,28.69
2022-08-19T13:31:42.679Z,28.86
2022-08-19T13:34:10.193Z,30.39
2022-08-19T13:36:37.913Z,30.68
2022-08-19T13:39:06.733Z,31.27
2022-08-19T13:41:34.645Z,29.63
2022-08-19T13:44:02.691Z,28.60
2022-08-19T13:46:30.261Z,28.25
2022-08-19T13:48:57.755Z,27.89
2022-08-19T13:51:24.540Z,28.09
2022-08-19T13:53:51.688Z,28.72
2022-08-19T13:56:24.140Z,28.51
2022-08-19T13:58:53.075Z,28.47
2022-08-19T14:01:24.850Z,28.07
2022-08-19T14:03:51.811Z,27.98
2022-08-19T14:06:18.347Z,27.55
2022-08-19T14:08:46.445Z,27.22
2022-08-19T14:11:13.193Z,27.35
2022-08-19T14:13:39.877Z,28.16
2022-08-19T14:16:14.754Z,30.00
2022-08-19T14:18:42.471Z,30.19
2022-08-19T14:21:16.062Z,30.23
2022-08-19T14:23:42.580Z,30.40
2022-08-19T14:26:12.549Z,30.59
2022-08-19T14:28:41.813Z,30.50
2022-08-19T14:31:09.966Z,31.06
2022-08-19T14:33:36.496Z,31.41
2022-08-19T14:36:03.491Z,31.42
2022-08-19T14:38:32.459Z,31.88
2022-08-19T14:41:17.244Z,31.59
2022-08-19T14:43:49.340Z,30.54
2022-08-19T14:46:20.660Z,29.28
2022-08-19T14:48:48.294Z,30.04
2022-08-19T14:51:20.073Z,29.19
2022-08-19T14:53:49.316Z,28.60
2022-08-19T14:56:19.486Z,28.07
2022-08-19T14:58:46.425Z,27.72
2022-08-19T15:01:13.661Z,27.94
2022-08-19T15:03:41.653Z,28.28
2022-08-19T15:06:09.062Z,28.95
2022-08-19T15:08:41.461Z,31.05
2022-08-19T15:11:18.554Z,29.50
2022-08-19T15:13:47.426Z,28.79
2022-08-19T15:16:18.254Z,31.83
2022-08-19T15:18:46.977Z,30.95
2022-08-19T15:21:27.242Z,34.21
2022-08-19T15:23:56.582Z,38.03
2022-08-19T15:26:23.204Z,37.03
2022-08-19T15:28:49.913Z,37.63
2022-08-19T15:31:25.221Z,35.57
2022-08-19T15:33:58.539Z,35.39
2022-08-19T15:36:27.065Z,32.60
2022-08-19T15:38:54.275Z,31.61
2022-08-19T15:41:23.902Z,30.97
2022-08-19T15:44:14.971Z,29.92
2022-08-19T15:46:45.314Z,29.82
2022-08-19T15:49:14.274Z,29.36
2022-08-19T15:51:43.752Z,29.08
2022-08-19T15:54:14.480Z,30.10
2022-08-19T15:57:00.023Z,30.36
2022-08-19T15:59:47.464Z,29.15
2022-08-19T16:02:34.250Z,29.25
2022-08-19T16:05:19.638Z,29.68
2022-08-19T16:07:47.562Z,31.47
2022-08-19T16:10:26.138Z,31.78
2022-08-19T16:12:54.994Z,32.80
2022-08-19T16:15:21.718Z,30.87
2022-08-19T16:17:56.473Z,29.41
2022-08-19T16:20:26.317Z,28.74
2022-08-19T16:22:54.361Z,28.33
2022-08-19T16:25:26.751Z,28.26
2022-08-19T16:28:07.404Z,28.02
2022-08-19T16:30:37.010Z,28.33
2022-08-19T16:33:03.554Z,27.53
2022-08-19T16:35:30.059Z,27.21
2022-08-19T16:37:56.864Z,27.26
2022-08-19T16:40:23.901Z,27.43
2022-08-19T16:42:51.401Z,27.34
2022-08-19T16:45:19.532Z,27.08
2022-08-19T16:47:46.043Z,27.21
2022-08-19T16:50:12.673Z,27.29
2022-08-19T16:52:39.244Z,27.37
2022-08-19T16:55:08.424Z,27.44
2022-08-19T16:57:35.042Z,27.53
2022-08-19T17:00:08.731Z,29.10
2022-08-19T17:02:35.309Z,30.26
2022-08-19T17:05:02.040Z,29.25
2022-08-19T17:07:33.017Z,29.08
2022-08-19T17:10:00.819Z,29.41
2022-08-19T17:12:32.218Z,29.74
2022-08-19T17:15:01.239Z,29.24
2022-08-19T17:17:29.556Z,28.96
2022-08-19T17:19:57.404Z,28.11
2022-08-19T17:22:24.048Z,27.31
2022-08-19T17:24:50.554Z,26.92
2022-08-19T17:27:17.138Z,26.36
2022-08-19T17:29:46.891Z,26.92
2022-08-19T17:32:14.501Z,27.95
2022-08-19T17:34:41.264Z,28.18
2022-08-19T17:37:07.802Z,28.37
2022-08-19T17:39:37.172Z,28.65
2022-08-19T17:42:08.262Z,28.30
2022-08-19T17:44:36.662Z,28.03
2022-08-19T17:47:04.306Z,27.94
2022-08-19T17:49:31.016Z,28.01
2022-08-19T17:52:00.664Z,27.29
2022-08-19T17:54:31.917Z,26.97
2022-08-19T17:57:01.311Z,26.98
2022-08-19T17:59:30.279Z,26.33
2022-08-19T18:01:57.614Z,26.47
2022-08-19T18:04:26.279Z,26.40
2022-08-19T18:06:55.154Z,26.29
2022-08-19T18:09:27.521Z,26.14
2022-08-19T18:11:57.113Z,25.99
2022-08-19T18:14:33.273Z,25.73
2022-08-19T18:17:10.273Z,25.54
2022-08-19T18:19:43.432Z,25.41
2022-08-19T18:22:27.545Z,25.27
2022-08-19T18:24:56.456Z,25.29
2022-08-19T18:27:24.000Z,25.25
2022-08-19T18:29:50.699Z,25.27
2022-08-19T18:32:23.529Z,25.17
2022-08-19T18:34:50.869Z,25.05
2022-08-19T18:37:17.385Z,24.95
2022-08-19T18:40:03.045Z,24.97
2022-08-19T18:42:48.354Z,24.73
2022-08-19T18:45:33.441Z,24.71
2022-08-19T18:48:26.346Z,24.53
2022-08-19T18:50:56.621Z,24.39
2022-08-19T18:53:23.318Z,24.46
2022-08-19T18:55:51.916Z,24.30
2022-08-19T18:58:18.553Z,24.12
2022-08-19T19:00:45.337Z,24.04
2022-08-19T19:03:11.858Z,23.84
2022-08-19T19:05:39.973Z,23.72
2022-08-19T19:08:07.592Z,23.58
2022-08-19T19:10:36.269Z,23.48
2022-08-19T19:13:02.993Z,23.48
2022-08-19T19:15:29.541Z,23.34
2022-08-19T19:17:56.341Z,23.29
2022-08-19T19:20:35.167Z,23.37
2022-08-19T19:23:03.862Z,23.31
2022-08-19T19:25:44.737Z,23.20
2022-08-19T19:28:17.734Z,23.24
2022-08-19T19:30:44.327Z,23.06
2022-08-19T19:33:11.266Z,22.94
2022-08-19T19:35:38.011Z,22.91
2022-08-19T19:38:11.679Z,22.86
2022-08-19T19:40:38.178Z,22.76
2022-08-19T19:43:06.205Z,22.60
2022-08-19T19:45:33.514Z,22.61
2022-08-19T19:48:00.660Z,22.54
2022-08-19T19:50:30.198Z,22.42
2022-08-19T19:52:57.898Z,22.27
2022-08-19T19:55:26.607Z,22.19
2022-08-19T19:57:54.328Z,22.18
2022-08-19T20:00:22.087Z,22.09
2022-08-19T20:02:50.854Z,21.95
2022-08-19T20:05:20.904Z,21.88
2022-08-19T20:08:06.818Z,21.77
2022-08-19T20:10:33.516Z,21.58
2022-08-19T20:13:04.880Z,21.46
2022-08-19T20:15:32.483Z,21.45
2022-08-19T20:18:00.180Z,21.47
2022-08-19T20:20:27.083Z,21.58
2022-08-19T20:22:54.340Z,21.50
2022-08-19T20:25:23.566Z,21.28
2022-08-19T20:27:51.210Z,21.24
2022-08-19T20:30:20.985Z,21.23
2022-08-19T20:32:49.230Z,21.08
2022-08-19T20:35:21.161Z,21.07
2022-08-19T20:37:48.614Z,20.93
2022-08-19T20:40:20.317Z,20.88
2022-08-19T20:42:48.492Z,20.88
2022-08-19T20:45:27.977Z,20.75
2022-08-19T20:48:02.819Z,20.81
2022-08-19T20:50:30.600Z,20.78
2022-08-19T20:52:57.402Z,20.79
2022-08-19T20:55:24.371Z,21.10
2022-08-19T20:57:51.626Z,20.91
2022-08-19T21:00:18.962Z,20.85
2022-08-19T21:02:46.907Z,20.76
2022-08-19T21:05:13.865Z,20.64
2022-08-19T21:07:40.773Z,20.68
2022-08-19T21:10:08.027Z,20.66
2022-08-19T21:12:34.783Z,20.60
2022-08-19T21:15:01.376Z,20.45
2022-08-19T21:17:27.998Z,20.39
2022-08-19T21:19:54.622Z,20.39
2022-08-19T21:22:21.156Z,20.34
2022-08-19T21:24:47.703Z,20.29
2022-08-19T21:27:14.405Z,20.34
2022-08-19T21:29:42.243Z,20.20
2022-08-19T21:32:14.339Z,20.19
2022-08-19T21:34:43.932Z,20.16
2022-08-19T21:37:19.926Z,20.16
2022-08-19T21:39:52.090Z,20.06
2022-08-19T21:42:18.785Z,20.15
2022-08-19T21:44:45.958Z,20.15
2022-08-19T21:47:12.834Z,20.01
2022-08-19T21:49:39.498Z,20.06
2022-08-19T21:52:06.615Z,19.97
2022-08-19T21:54:38.177Z,20.02
2022-08-19T21:57:07.043Z,20.04
2022-08-19T21:59:36.913Z,20.06
2022-08-19T22:02:19.065Z,20.21
2022-08-19T22:04:47.048Z,20.11
2022-08-19T22:07:14.422Z,20.20
2022-08-19T22:09:42.557Z,20.16
2022-08-19T22:12:11.597Z,20.20
2022-08-19T22:14:39.280Z,20.26
2022-08-19T22:17:06.198Z,20.25
2022-08-19T22:19:33.340Z,20.09
2022-08-19T22:22:00.728Z,19.97
2022-08-19T22:24:27.360Z,19.96
2022-08-19T22:26:53.885Z,19.89
2022-08-19T22:29:20.555Z,19.80
2022-08-19T22:32:22.991Z,19.84
2022-08-19T22:34:48.366Z,19.65
2022-08-19T22:37:14.971Z,19.54
2022-08-19T22:39:41.700Z,19.58
2022-08-19T22:42:08.594Z,19.36
2022-08-19T22:44:35.114Z,19.38
2022-08-19T22:47:02.237Z,19.30
2022-08-19T22:49:28.834Z,19.24
2022-08-19T22:52:13.896Z,19.36
2022-08-19T22:54:40.413Z,19.14
2022-08-19T22:57:06.939Z,18.99
2022-08-19T22:59:33.510Z,19.00
2022-08-19T23:02:00.124Z,18.96
2022-08-19T23:04:26.640Z,19.02
2022-08-19T23:06:53.559Z,19.02
2022-08-19T23:09:20.142Z,19.05
2022-08-19T23:11:50.329Z,19.03
2022-08-19T23:14:18.533Z,19.01
2022-08-19T23:16:50.753Z,18.89
2022-08-19T23:19:18.045Z,18.82
2022-08-19T23:21:44.579Z,18.84
2022-08-19T23:24:11.337Z,19.14
2022-08-19T23:26:38.862Z,19.29
2022-08-19T23:29:24.409Z,19.40
2022-08-19T23:31:51.310Z,19.19
2022-08-19T23:34:18.030Z,19.16
2022-08-19T23:36:44.533Z,19.18
2022-08-19T23:39:11.181Z,19.04
2022-08-19T23:41:38.655Z,19.05
2022-08-19T23:44:06.536Z,19.10
2022-08-19T23:46:54.702Z,19.17
2022-08-19T23:49:22.817Z,19.11
2022-08-19T23:51:49.313Z,19.11
2022-08-19T23:54:15.822Z,19.23
2022-08-19T23:56:42.364Z,19.14
2022-08-19T23:59:08.986Z,19.00
